createdAt,value
2023-01-13T00:01:10.021Z,5.10
2023-01-13T00:03:37.166Z,5.37
2023-01-13T00:06:05.337Z,5.50
2023-01-13T00:08:32.495Z,5.33
2023-01-13T00:10:59.852Z,4.97
2023-01-13T00:13:26.827Z,5.33
2023-01-13T00:16:00.965Z,4.80
2023-01-13T00:18:28.391Z,5.43
2023-01-13T00:21:04.048Z,4.27
2023-01-13T00:23:32.531Z,4.90
2023-01-13T00:26:02.241Z,4.00
2023-01-13T00:28:29.707Z,6.73
2023-01-13T00:30:58.557Z,4.30
2023-01-13T00:33:25.861Z,4.30
2023-01-13T00:35:57.601Z,4.57
2023-01-13T00:38:24.429Z,3.87
2023-01-13T00:41:02.343Z,3.50
2023-01-13T00:43:30.799Z,3.27
2023-01-13T00:45:57.523Z,3.50
2023-01-13T00:48:25.003Z,4.07
2023-01-13T00:50:58.543Z,4.40
2023-01-13T00:53:27.065Z,3.80
2023-01-13T00:56:04.962Z,3.53
2023-01-13T00:58:33.982Z,2.80
2023-01-13T01:01:06.127Z,2.93
2023-01-13T01:03:32.936Z,4.67
2023-01-13T01:06:07.108Z,3.20
2023-01-13T01:08:36.968Z,3.23
2023-01-13T01:11:09.415Z,3.87
2023-01-13T01:13:37.156Z,3.63
2023-01-13T01:16:09.499Z,3.90
2023-01-13T01:18:42.576Z,3.43
2023-01-13T01:21:10.271Z,3.57
2023-01-13T01:23:38.256Z,3.70
2023-01-13T01:26:07.943Z,5.13
2023-01-13T01:28:35.348Z,2.67
2023-01-13T01:31:10.311Z,2.33
2023-01-13T01:33:37.142Z,3.57
2023-01-13T01:36:04.613Z,5.77
2023-01-13T01:38:31.295Z,4.40
2023-01-13T01:40:58.480Z,2.80
2023-01-13T01:43:59.941Z,2.50
2023-01-13T01:46:27.948Z,4.63
2023-01-13T01:48:59.927Z,2.77
2023-01-13T01:51:27.769Z,3.73
2023-01-13T01:53:57.183Z,3.83
2023-01-13T01:56:24.003Z,2.70
2023-01-13T01:58:53.514Z,2.63
2023-01-13T02:01:20.663Z,5.93
2023-01-13T02:03:57.770Z,4.80
2023-01-13T02:06:25.314Z,6.70
2023-01-13T02:08:53.056Z,6.10
2023-01-13T02:11:53.562Z,3.37
2023-01-13T02:14:27.016Z,4.80
2023-01-13T02:17:21.624Z,5.20
2023-01-13T02:20:12.909Z,4.80
2023-01-13T02:23:04.203Z,5.83
2023-01-13T02:25:58.355Z,4.07
2023-01-13T02:28:37.105Z,6.77
2023-01-13T02:31:28.913Z,5.20
2023-01-13T02:34:11.468Z,4.33
2023-01-13T02:36:58.358Z,4.60
2023-01-13T02:39:59.821Z,3.83
2023-01-13T02:43:05.864Z,6.23
2023-01-13T02:45:37.847Z,8.37
2023-01-13T02:48:08.157Z,8.03
2023-01-13T02:50:56.346Z,6.43
2023-01-13T02:53:35.766Z,4.50
2023-01-13T02:56:05.034Z,11.67
2023-01-13T02:58:35.251Z,8.63
2023-01-13T03:01:02.322Z,7.07
2023-01-13T03:03:29.111Z,8.43
2023-01-13T03:06:22.076Z,10.00
2023-01-13T03:09:10.172Z,7.23
2023-01-13T03:11:51.160Z,9.07
2023-01-13T03:14:36.000Z,8.90
2023-01-13T03:17:27.337Z,8.03
2023-01-13T03:20:26.386Z,7.23
2023-01-13T03:23:05.323Z,10.73
2023-01-13T03:25:37.187Z,9.50
2023-01-13T03:28:16.878Z,11.43
2023-01-13T03:30:53.067Z,9.67
2023-01-13T03:33:31.624Z,9.73
2023-01-13T03:36:04.397Z,13.07
2023-01-13T03:38:40.906Z,9.80
2023-01-13T03:41:14.578Z,8.67
2023-01-13T03:44:16.354Z,12.03
2023-01-13T03:46:51.684Z,11.53
2023-01-13T03:49:23.976Z,9.93
2023-01-13T03:51:56.899Z,10.33
2023-01-13T03:54:28.317Z,13.63
2023-01-13T03:57:00.704Z,15.83
2023-01-13T03:59:36.000Z,16.87
2023-01-13T04:02:33.034Z,11.73
2023-01-13T04:05:03.196Z,15.30
2023-01-13T04:07:36.009Z,13.53
2023-01-13T04:10:06.402Z,12.97
2023-01-13T04:13:01.037Z,15.60
2023-01-13T04:15:49.864Z,14.33
2023-01-13T04:18:25.324Z,13.97
2023-01-13T04:21:12.159Z,14.23
2023-01-13T04:23:58.847Z,11.40
2023-01-13T04:26:26.707Z,15.50
2023-01-13T04:28:54.880Z,14.20
2023-01-13T04:31:22.005Z,17.43
2023-01-13T04:33:48.735Z,11.50
2023-01-13T04:36:15.894Z,14.80
2023-01-13T04:38:42.586Z,18.57
2023-01-13T04:41:09.396Z,16.17
2023-01-13T04:43:36.137Z,16.97
2023-01-13T04:46:02.972Z,14.47
2023-01-13T04:48:29.888Z,20.70
2023-01-13T04:50:56.641Z,16.83
2023-01-13T04:53:23.375Z,18.27
2023-01-13T04:55:50.166Z,14.70
2023-01-13T04:58:16.947Z,18.17
2023-01-13T05:00:43.790Z,19.37
2023-01-13T05:03:10.588Z,15.10
2023-01-13T05:05:38.121Z,19.10
2023-01-13T05:08:05.482Z,15.63
2023-01-13T05:10:32.311Z,14.37
2023-01-13T05:13:17.595Z,19.07
2023-01-13T05:16:05.075Z,18.33
2023-01-13T05:18:33.096Z,14.23
2023-01-13T05:20:59.785Z,17.80
2023-01-13T05:23:45.595Z,14.60
2023-01-13T05:26:12.379Z,14.37
2023-01-13T05:28:39.200Z,11.90
2023-01-13T05:31:06.063Z,17.57
2023-01-13T05:33:34.913Z,15.57
2023-01-13T05:36:03.699Z,17.27
2023-01-13T05:38:30.440Z,16.27
2023-01-13T05:41:18.385Z,17.10
2023-01-13T05:43:45.224Z,18.33
2023-01-13T05:46:12.600Z,17.63
2023-01-13T05:48:41.834Z,19.57
2023-01-13T05:51:10.978Z,20.97
2023-01-13T05:53:37.948Z,18.00
2023-01-13T05:56:06.121Z,18.37
2023-01-13T05:58:32.888Z,18.83
2023-01-13T06:01:05.526Z,16.63
2023-01-13T06:03:32.268Z,18.37
2023-01-13T06:06:01.876Z,21.53
2023-01-13T06:08:29.041Z,21.03
2023-01-13T06:10:56.354Z,22.73
2023-01-13T06:13:23.387Z,18.90
2023-01-13T06:15:50.197Z,14.80
2023-01-13T06:18:17.434Z,16.27
2023-01-13T06:20:44.117Z,16.83
2023-01-13T06:23:11.903Z,16.10
2023-01-13T06:25:56.159Z,19.73
2023-01-13T06:28:22.827Z,19.40
2023-01-13T06:30:52.966Z,19.60
2023-01-13T06:33:24.782Z,20.07
2023-01-13T06:35:59.812Z,15.40
2023-01-13T06:38:30.160Z,12.67
2023-01-13T06:40:57.029Z,17.37
2023-01-13T06:43:23.685Z,14.77
2023-01-13T06:45:55.373Z,12.50
2023-01-13T06:48:25.378Z,10.97
2023-01-13T06:50:52.082Z,9.87
2023-01-13T06:53:18.955Z,12.20
2023-01-13T06:55:45.634Z,13.60
2023-01-13T06:58:12.357Z,11.80
2023-01-13T07:00:39.421Z,11.80
2023-01-13T07:03:12.269Z,12.77
2023-01-13T07:05:40.552Z,10.30
2023-01-13T07:08:07.588Z,14.80
2023-01-13T07:10:35.246Z,10.03
2023-01-13T07:13:21.864Z,15.30
2023-01-13T07:15:59.062Z,12.80
2023-01-13T07:18:28.543Z,12.47
2023-01-13T07:20:57.284Z,8.43
2023-01-13T07:23:25.344Z,7.70
2023-01-13T07:25:52.103Z,11.00
2023-01-13T07:28:18.782Z,9.27
2023-01-13T07:30:45.728Z,12.90
2023-01-13T07:33:12.483Z,7.67
2023-01-13T07:35:40.061Z,8.57
2023-01-13T07:38:08.395Z,9.20
2023-01-13T07:40:35.072Z,12.37
2023-01-13T07:43:20.595Z,5.53
2023-01-13T07:45:47.423Z,9.00
2023-01-13T07:48:14.198Z,8.87
2023-01-13T07:50:43.936Z,12.20
2023-01-13T07:53:10.882Z,13.50
2023-01-13T07:55:41.982Z,8.00
2023-01-13T07:58:10.009Z,6.60
2023-01-13T08:00:38.058Z,8.33
2023-01-13T08:03:04.947Z,10.77
2023-01-13T08:05:31.851Z,13.43
2023-01-13T08:07:58.714Z,9.40
2023-01-13T08:10:25.569Z,15.90
2023-01-13T08:13:30.642Z,9.53
2023-01-13T08:16:05.819Z,12.80
2023-01-13T08:18:33.986Z,10.07
2023-01-13T08:21:13.415Z,7.27
2023-01-13T08:23:41.706Z,8.97
2023-01-13T08:26:14.739Z,10.13
2023-01-13T08:28:41.750Z,13.03
2023-01-13T08:31:12.099Z,12.67
2023-01-13T08:33:39.390Z,15.27
2023-01-13T08:36:07.964Z,14.57
2023-01-13T08:38:36.018Z,7.97
2023-01-13T08:41:09.581Z,13.47
2023-01-13T08:43:37.321Z,15.47
2023-01-13T08:46:05.156Z,10.90
2023-01-13T08:48:32.700Z,8.90
2023-01-13T08:51:08.087Z,15.23
2023-01-13T08:53:35.301Z,16.10
2023-01-13T08:56:02.174Z,10.87
2023-01-13T08:58:29.133Z,10.43
2023-01-13T09:00:56.103Z,10.80
2023-01-13T09:03:22.975Z,14.73
2023-01-13T09:05:49.798Z,13.10
2023-01-13T09:08:16.618Z,9.83
2023-01-13T09:10:43.526Z,7.17
2023-01-13T09:13:13.515Z,11.90
2023-01-13T09:15:44.044Z,8.93
2023-01-13T09:18:11.709Z,7.53
2023-01-13T09:20:38.823Z,11.60
2023-01-13T09:23:08.862Z,18.70
2023-01-13T09:25:36.990Z,10.20
2023-01-13T09:28:05.183Z,9.87
2023-01-13T09:30:32.330Z,12.20
2023-01-13T09:33:18.365Z,15.67
2023-01-13T09:35:45.209Z,11.30
2023-01-13T09:38:12.061Z,10.80
2023-01-13T09:40:41.445Z,13.63
2023-01-13T09:43:42.481Z,15.00
2023-01-13T09:46:41.524Z,13.47
2023-01-13T09:49:32.550Z,14.47
2023-01-13T09:52:03.867Z,11.70
2023-01-13T09:54:51.623Z,10.83
2023-01-13T09:57:20.622Z,12.70
2023-01-13T09:59:48.279Z,12.17
2023-01-13T10:02:46.877Z,6.10
2023-01-13T10:05:43.206Z,12.47
2023-01-13T10:08:18.976Z,13.07
2023-01-13T10:10:58.203Z,11.27
2023-01-13T10:13:28.211Z,15.40
2023-01-13T10:16:02.767Z,13.00
2023-01-13T10:18:41.854Z,13.87
2023-01-13T10:21:23.596Z,11.27
2023-01-13T10:24:11.571Z,11.50
2023-01-13T10:26:56.645Z,11.20
2023-01-13T10:29:25.820Z,13.10
2023-01-13T10:31:55.794Z,12.43
2023-01-13T10:34:24.746Z,11.20
2023-01-13T10:37:08.155Z,9.17
2023-01-13T10:39:43.916Z,12.97
2023-01-13T10:42:19.408Z,8.83
2023-01-13T10:44:54.724Z,12.13
2023-01-13T10:47:26.551Z,10.07
2023-01-13T10:50:12.540Z,14.40
2023-01-13T10:53:00.368Z,11.33
2023-01-13T10:55:37.044Z,14.17
2023-01-13T10:58:21.302Z,10.97
2023-01-13T11:00:58.168Z,13.50
2023-01-13T11:03:26.069Z,11.73
2023-01-13T11:05:56.672Z,10.73
2023-01-13T11:08:26.432Z,9.00
2023-01-13T11:10:58.760Z,11.53
2023-01-13T11:14:01.778Z,14.70
2023-01-13T11:16:28.936Z,11.60
2023-01-13T11:19:12.119Z,9.80
2023-01-13T11:22:04.587Z,10.00
2023-01-13T11:24:58.908Z,13.93
2023-01-13T11:27:34.705Z,10.00
2023-01-13T11:30:29.722Z,14.33
2023-01-13T11:33:14.169Z,11.23
2023-01-13T11:36:20.386Z,15.67
2023-01-13T11:38:48.112Z,11.63
2023-01-13T11:41:28.736Z,11.43
2023-01-13T11:44:36.965Z,12.93
2023-01-13T11:47:03.701Z,12.70
2023-01-13T11:49:33.448Z,16.53
2023-01-13T11:52:24.264Z,14.40
2023-01-13T11:55:02.469Z,13.23
2023-01-13T11:57:47.826Z,14.00
2023-01-13T12:00:28.212Z,9.80
2023-01-13T12:03:15.287Z,17.57
2023-01-13T12:05:48.592Z,15.67
2023-01-13T12:08:31.262Z,14.17
2023-01-13T12:11:16.043Z,13.30
2023-01-13T12:13:42.758Z,11.20
2023-01-13T12:16:23.842Z,16.27
2023-01-13T12:19:29.832Z,12.30
2023-01-13T12:21:59.513Z,11.10
2023-01-13T12:24:33.006Z,12.30
2023-01-13T12:27:27.243Z,11.93
2023-01-13T12:29:59.703Z,9.47
2023-01-13T12:32:36.324Z,13.17
2023-01-13T12:35:16.840Z,15.40
2023-01-13T12:38:02.912Z,14.57
2023-01-13T12:40:48.389Z,9.83
2023-01-13T12:43:39.835Z,11.70
2023-01-13T12:46:18.799Z,13.47
2023-01-13T12:48:56.767Z,13.17
2023-01-13T12:51:56.482Z,12.40
2023-01-13T12:54:53.861Z,14.97
2023-01-13T12:57:27.423Z,10.30
2023-01-13T13:00:00.231Z,8.10
2023-01-13T13:02:53.177Z,10.67
2023-01-13T13:05:23.225Z,9.53
2023-01-13T13:08:00.876Z,10.93
2023-01-13T13:10:36.093Z,9.70
2023-01-13T13:13:19.081Z,6.83
2023-01-13T13:15:48.097Z,7.97
2023-01-13T13:18:18.389Z,6.07
2023-01-13T13:20:57.526Z,7.10
2023-01-13T13:23:40.321Z,12.97
2023-01-13T13:26:20.700Z,13.33
2023-01-13T13:29:11.209Z,12.23
2023-01-13T13:32:15.962Z,8.43
2023-01-13T13:34:48.734Z,12.67
2023-01-13T13:38:00.634Z,10.23
2023-01-13T13:40:50.756Z,9.97
2023-01-13T13:43:38.596Z,9.57
2023-01-13T13:46:41.596Z,8.67
2023-01-13T13:49:08.320Z,12.03
2023-01-13T13:51:41.781Z,10.23
2023-01-13T13:54:13.593Z,13.53
2023-01-13T13:56:44.024Z,10.47
2023-01-13T13:59:13.212Z,11.17
2023-01-13T14:01:43.357Z,10.20
2023-01-13T14:04:26.104Z,11.13
2023-01-13T14:06:58.597Z,7.70
2023-01-13T14:09:28.627Z,8.43
2023-01-13T14:12:06.638Z,13.10
2023-01-13T14:14:33.332Z,10.60
2023-01-13T14:17:00.127Z,7.17
2023-01-13T14:19:34.322Z,5.83
2023-01-13T14:22:03.510Z,12.07
2023-01-13T14:24:31.569Z,7.23
2023-01-13T14:27:10.235Z,8.60
2023-01-13T14:29:37.691Z,11.00
2023-01-13T14:32:06.990Z,15.13
2023-01-13T14:34:35.208Z,7.07
2023-01-13T14:37:03.184Z,9.30
2023-01-13T14:39:38.801Z,10.80
2023-01-13T14:42:12.478Z,12.40
2023-01-13T14:44:45.153Z,12.37
2023-01-13T14:47:28.167Z,9.43
2023-01-13T14:50:19.531Z,8.43
2023-01-13T14:52:57.044Z,11.17
2023-01-13T14:55:44.092Z,9.53
2023-01-13T14:58:24.399Z,8.83
2023-01-13T15:00:53.158Z,10.33
2023-01-13T15:03:21.105Z,9.60
2023-01-13T15:05:57.159Z,11.80
2023-01-13T15:08:36.794Z,8.90
2023-01-13T15:11:06.773Z,12.30
2023-01-13T15:13:41.243Z,9.83
2023-01-13T15:16:17.354Z,11.73
2023-01-13T15:18:44.263Z,10.47
2023-01-13T15:21:11.020Z,11.20
2023-01-13T15:23:40.137Z,10.37
2023-01-13T15:26:28.341Z,8.10
2023-01-13T15:28:56.965Z,8.93
2023-01-13T15:31:25.081Z,9.10
2023-01-13T15:33:51.884Z,9.40
2023-01-13T15:36:26.041Z,11.73
2023-01-13T15:38:53.443Z,10.20
2023-01-13T15:41:40.679Z,10.37
2023-01-13T15:44:28.546Z,10.97
2023-01-13T15:46:55.466Z,8.03
2023-01-13T15:49:29.947Z,7.73
2023-01-13T15:51:56.823Z,11.00
2023-01-13T15:54:24.827Z,8.37
2023-01-13T15:56:52.425Z,9.87
2023-01-13T15:59:22.523Z,8.93
2023-01-13T16:01:49.349Z,6.40
2023-01-13T16:04:16.100Z,12.17
2023-01-13T16:06:42.893Z,7.80
2023-01-13T16:09:14.509Z,8.80
2023-01-13T16:11:41.458Z,11.30
2023-01-13T16:14:08.263Z,7.80
2023-01-13T16:16:36.299Z,10.70
2023-01-13T16:19:03.118Z,10.47
2023-01-13T16:21:29.880Z,11.00
2023-01-13T16:23:56.609Z,8.50
2023-01-13T16:26:29.330Z,4.70
2023-01-13T16:28:58.061Z,6.37
2023-01-13T16:31:29.141Z,8.90
2023-01-13T16:33:58.500Z,9.60
2023-01-13T16:36:27.345Z,9.67
2023-01-13T16:38:56.092Z,10.70
2023-01-13T16:41:25.903Z,11.17
2023-01-13T16:43:55.771Z,13.73
2023-01-13T16:46:24.327Z,8.27
2023-01-13T16:48:54.935Z,6.67
2023-01-13T16:51:25.634Z,10.00
2023-01-13T16:53:54.436Z,10.57
2023-01-13T16:56:33.859Z,12.67
2023-01-13T16:59:09.469Z,12.77
2023-01-13T17:01:39.988Z,12.40
2023-01-13T17:04:15.191Z,8.23
2023-01-13T17:06:56.349Z,11.20
2023-01-13T17:09:29.065Z,10.93
2023-01-13T17:11:57.354Z,10.53
2023-01-13T17:14:26.221Z,13.07
2023-01-13T17:16:58.597Z,11.93
2023-01-13T17:19:29.002Z,12.43
2023-01-13T17:21:58.632Z,13.83
2023-01-13T17:24:26.852Z,10.37
2023-01-13T17:26:54.638Z,14.40
2023-01-13T17:29:26.657Z,10.13
2023-01-13T17:31:59.312Z,10.70
2023-01-13T17:34:27.895Z,7.80
2023-01-13T17:36:56.547Z,10.30
2023-01-13T17:39:28.352Z,11.17
2023-01-13T17:41:59.450Z,10.47
2023-01-13T17:44:29.767Z,11.20
2023-01-13T17:46:57.611Z,12.87
2023-01-13T17:49:25.796Z,11.13
2023-01-13T17:51:54.414Z,11.63
2023-01-13T17:54:23.789Z,8.83
2023-01-13T17:56:53.351Z,8.70
2023-01-13T17:59:25.490Z,6.13
2023-01-13T18:01:54.495Z,10.27
2023-01-13T18:04:25.756Z,11.60
2023-01-13T18:06:54.646Z,8.57
2023-01-13T18:09:26.851Z,18.33
2023-01-13T18:11:56.999Z,7.90
2023-01-13T18:14:25.474Z,7.33
2023-01-13T18:16:54.482Z,11.67
2023-01-13T18:19:41.643Z,11.07
2023-01-13T18:22:32.981Z,10.10
2023-01-13T18:25:22.115Z,6.30
2023-01-13T18:27:50.805Z,8.50
2023-01-13T18:30:19.304Z,6.63
2023-01-13T18:32:49.049Z,8.57
2023-01-13T18:35:18.163Z,9.03
2023-01-13T18:37:49.246Z,6.93
2023-01-13T18:40:17.740Z,4.73
2023-01-13T18:42:59.966Z,7.60
2023-01-13T18:45:30.411Z,6.37
2023-01-13T18:48:00.620Z,7.33
2023-01-13T18:50:32.300Z,6.53
2023-01-13T18:53:08.332Z,7.43
2023-01-13T18:55:38.933Z,7.87
2023-01-13T18:58:07.367Z,7.40
2023-01-13T19:00:39.903Z,9.20
2023-01-13T19:05:36.906Z,10.63
2023-01-13T19:08:05.946Z,12.83
2023-01-13T19:10:34.181Z,14.77
2023-01-13T19:13:02.814Z,15.33
2023-01-13T19:15:31.435Z,18.00
2023-01-13T19:17:59.940Z,15.20
2023-01-13T19:20:28.207Z,10.63
2023-01-13T19:22:56.312Z,13.67
2023-01-13T19:25:25.018Z,11.57
2023-01-13T19:27:57.913Z,14.00
2023-01-13T19:30:27.222Z,15.17
2023-01-13T19:32:56.006Z,16.97
2023-01-13T19:35:24.416Z,13.20
2023-01-13T19:37:54.631Z,17.27
2023-01-13T19:40:24.425Z,13.03
2023-01-13T19:43:11.106Z,11.73
2023-01-13T19:45:40.070Z,13.43
2023-01-13T19:48:13.139Z,13.13
2023-01-13T19:50:43.101Z,13.33
2023-01-13T19:53:18.508Z,10.77
2023-01-13T19:55:49.517Z,15.60
2023-01-13T19:58:21.535Z,13.40
2023-01-13T20:00:50.192Z,12.03
2023-01-13T20:03:21.531Z,9.47
2023-01-13T20:05:49.560Z,13.73
2023-01-13T20:08:19.750Z,12.90
2023-01-13T20:10:48.930Z,15.97
2023-01-13T20:13:17.476Z,11.80
2023-01-13T20:15:47.060Z,9.67
2023-01-13T20:18:16.187Z,14.10
2023-01-13T20:20:45.518Z,10.10
2023-01-13T20:23:14.771Z,9.37
2023-01-13T20:25:45.460Z,9.33
2023-01-13T20:28:14.037Z,7.80
2023-01-13T20:30:42.429Z,17.53
2023-01-13T20:33:11.435Z,11.03
2023-01-13T20:35:40.906Z,9.93
2023-01-13T20:38:12.737Z,11.10
2023-01-13T20:40:42.682Z,13.80
2023-01-13T20:43:11.157Z,12.73
2023-01-13T20:45:42.215Z,8.53
2023-01-13T20:48:12.324Z,15.70
2023-01-13T20:50:40.828Z,15.97
2023-01-13T20:53:09.337Z,9.47
2023-01-13T20:55:41.821Z,13.67
2023-01-13T20:58:09.930Z,9.80
2023-01-13T21:00:39.189Z,7.03
2023-01-13T21:03:07.420Z,7.73
2023-01-13T21:05:41.054Z,10.07
2023-01-13T21:08:09.211Z,8.37
2023-01-13T21:10:38.209Z,13.47
2023-01-13T21:13:25.960Z,8.40
2023-01-13T21:15:56.313Z,8.73
2023-01-13T21:18:44.788Z,6.50
2023-01-13T21:21:13.438Z,5.77
2023-01-13T21:23:43.711Z,7.77
2023-01-13T21:26:13.279Z,10.90
2023-01-13T21:28:43.961Z,6.07
2023-01-13T21:31:12.279Z,15.13
2023-01-13T21:33:40.748Z,7.53
2023-01-13T21:36:12.826Z,7.10
2023-01-13T21:38:42.283Z,6.50
2023-01-13T21:41:11.197Z,8.27
2023-01-13T21:44:00.291Z,9.47
2023-01-13T21:46:46.882Z,6.43
2023-01-13T21:49:14.726Z,3.50
2023-01-13T21:51:44.931Z,4.77
2023-01-13T21:54:13.252Z,6.63
2023-01-13T21:56:44.184Z,6.30
2023-01-13T21:59:15.619Z,4.73
2023-01-13T22:02:00.136Z,2.87
2023-01-13T22:04:33.313Z,4.83
2023-01-13T22:07:05.695Z,3.30
2023-01-13T22:09:34.830Z,3.77
2023-01-13T22:12:04.288Z,3.90
2023-01-13T22:14:32.307Z,4.20
2023-01-13T22:17:02.012Z,2.97
2023-01-13T22:19:31.499Z,4.53
2023-01-13T22:22:00.001Z,1.77
2023-01-13T22:24:27.991Z,4.43
2023-01-13T22:26:56.367Z,5.33
2023-01-13T22:29:24.851Z,2.00
2023-01-13T22:31:53.199Z,4.77
2023-01-13T22:34:21.851Z,3.83
2023-01-13T22:36:50.320Z,4.10
2023-01-13T22:39:18.885Z,4.57
2023-01-13T22:41:49.652Z,6.83
2023-01-13T22:44:17.595Z,4.60
2023-01-13T22:46:47.810Z,6.07
2023-01-13T22:49:18.491Z,6.03
2023-01-13T22:51:50.162Z,6.30
2023-01-13T22:54:19.864Z,5.37
2023-01-13T22:56:49.667Z,4.93
2023-01-13T22:59:18.300Z,4.20
2023-01-13T23:01:47.332Z,5.87
2023-01-13T23:04:17.047Z,10.17
2023-01-13T23:06:45.494Z,5.57
2023-01-13T23:09:13.839Z,7.37
2023-01-13T23:11:42.904Z,8.93
2023-01-13T23:14:13.643Z,5.47
2023-01-13T23:16:44.057Z,6.47
2023-01-13T23:19:13.641Z,8.00
2023-01-13T23:21:42.392Z,7.03
2023-01-13T23:24:11.337Z,3.57
2023-01-13T23:26:39.903Z,8.53
2023-01-13T23:29:12.996Z,4.57
2023-01-13T23:31:42.259Z,9.87
2023-01-13T23:34:10.775Z,6.63
2023-01-13T23:36:41.864Z,7.43
2023-01-13T23:39:11.249Z,6.53
2023-01-13T23:41:40.947Z,8.13
2023-01-13T23:44:11.021Z,8.63
2023-01-13T23:46:40.327Z,5.43
2023-01-13T23:49:08.146Z,8.83
2023-01-13T23:51:39.422Z,8.47
2023-01-13T23:54:07.628Z,6.33
2023-01-13T23:56:40.224Z,9.23
2023-01-13T23:59:09.427Z,6.10
